Time;durP1;ratioP1;P1;durP2;ratioP2;P2;SDS_P1;SDS_P2;PMS_P1;PMS_P2;Temp;Humidity;BMP_temperature;BMP_pressure;BME280_temperature;BME280_humidity;BME280_pressure;Samples;Min_cycle;Max_cycle;Signal;HPM_P1;HPM_P2
2022/10/09 00:00:21;;;;;;;;;;;5.10;99.90;;;;;;5054049;28;19916;-66
2022/10/09 00:02:47;;;;;;;;;;;5.10;99.90;;;;;;5054180;28;19983;-66
2022/10/09 00:05:12;;;;;;;;;;;5.10;99.90;;;;;;5053984;28;19912;-65
2022/10/09 00:07:38;;;;;;;;;;;5.10;99.90;;;;;;5086649;28;19935;-66
2022/10/09 00:10:03;;;;;;;;;;;5.10;99.90;;;;;;5086302;28;19919;-65
2022/10/09 00:12:29;;;;;;;;;;;5.10;99.90;;;;;;5053893;28;19970;-65
2022/10/09 00:14:54;;;;;;;;;;;5.10;99.90;;;;;;5052763;28;19920;-65
2022/10/09 00:17:20;;;;;;;;;;;5.00;99.90;;;;;;5054143;28;19909;-65
2022/10/09 00:19:46;;;;;;;;;;;5.00;99.90;;;;;;5069252;28;19909;-65
2022/10/09 00:22:11;;;;;;;;;;;5.00;99.90;;;;;;5052522;28;19963;-65
2022/10/09 00:24:37;;;;;;;;;;;5.00;99.90;;;;;;5053484;28;19921;-66
2022/10/09 00:27:02;;;;;;;;;;;5.00;99.90;;;;;;5053802;28;20059;-66
2022/10/09 00:29:28;;;;;;;;;;;4.90;99.90;;;;;;5052668;28;19916;-66
2022/10/09 00:31:53;;;;;;;;;;;5.00;99.90;;;;;;5053833;28;19931;-65
2022/10/09 00:34:18;;;;;;;;;;;5.00;99.90;;;;;;5053531;28;19909;-66
2022/10/09 00:36:44;;;;;;;;;;;4.90;99.90;;;;;;5053659;28;20004;-66
2022/10/09 00:39:09;;;;;;;;;;;4.90;99.90;;;;;;5053879;28;19913;-66
2022/10/09 00:41:35;;;;;;;;;;;4.90;99.90;;;;;;5053728;28;19912;-66
2022/10/09 00:44:02;;;;;;;;;;;4.80;99.90;;;;;;5053530;28;19978;-65
2022/10/09 00:46:32;;;;;;;;;;;4.80;99.90;;;;;;5053885;28;20493;-66
2022/10/09 00:49:04;;;;;;;;;;;4.80;99.90;;;;;;5053907;28;19909;-66
2022/10/09 00:51:30;;;;;;;;;;;4.80;99.90;;;;;;5053863;28;19909;-65
2022/10/09 00:53:56;;;;;;;;;;;4.80;99.90;;;;;;5053923;28;20359;-66
2022/10/09 00:56:23;;;;;;;;;;;4.70;99.90;;;;;;5053806;28;19915;-66
2022/10/09 00:58:51;;;;;;;;;;;4.70;99.90;;;;;;5054022;28;19916;-66
2022/10/09 01:01:17;;;;;;;;;;;4.70;99.90;;;;;;5053641;28;19909;-66
2022/10/09 01:03:42;;;;;;;;;;;4.60;99.90;;;;;;5052405;28;19916;-66
2022/10/09 01:06:13;;;;;;;;;;;4.60;99.90;;;;;;5053450;28;19956;-66
2022/10/09 01:08:58;;;;;;;;;;;4.60;99.90;;;;;;5053642;28;19916;-66
2022/10/09 01:11:31;;;;;;;;;;;4.60;99.90;;;;;;5053443;28;20367;-65
2022/10/09 01:14:11;;;;;;;;;;;4.50;99.90;;;;;;5052129;28;19909;-66
2022/10/09 01:16:42;;;;;;;;;;;4.50;99.90;;;;;;5053231;28;19916;-66
2022/10/09 01:19:20;;;;;;;;;;;4.50;99.90;;;;;;5053364;28;19916;-65
2022/10/09 01:21:49;;;;;;;;;;;4.50;99.90;;;;;;5053214;28;19959;-66
2022/10/09 01:24:23;;;;;;;;;;;4.50;99.90;;;;;;5053095;28;19956;-67
2022/10/09 01:27:09;;;;;;;;;;;4.50;99.90;;;;;;5053636;28;19948;-67
2022/10/09 01:29:37;;;;;;;;;;;4.50;99.90;;;;;;5053317;28;19908;-66
2022/10/09 01:32:04;;;;;;;;;;;4.50;99.90;;;;;;5052585;28;19915;-66
2022/10/09 01:34:31;;;;;;;;;;;4.40;99.90;;;;;;5057117;28;20309;-66
2022/10/09 01:36:57;;;;;;;;;;;4.40;99.90;;;;;;5089436;28;19932;-67
2022/10/09 01:39:24;;;;;;;;;;;4.30;99.90;;;;;;5056833;28;19974;-65
2022/10/09 01:41:51;;;;;;;;;;;4.30;99.90;;;;;;5089222;28;20422;-65
2022/10/09 01:44:18;;;;;;;;;;;4.30;99.90;;;;;;5057030;28;20070;-66
2022/10/09 01:46:44;;;;;;;;;;;4.30;99.90;;;;;;5089084;28;19913;-66
2022/10/09 01:49:14;;;;;;;;;;;4.30;99.90;;;;;;5055259;28;20381;-66
2022/10/09 01:51:47;;;;;;;;;;;4.20;99.90;;;;;;5056598;28;20367;-66
2022/10/09 01:54:13;;;;;;;;;;;4.20;99.90;;;;;;5088802;28;19909;-66
2022/10/09 01:56:40;;;;;;;;;;;4.20;99.90;;;;;;5056865;28;20264;-66
2022/10/09 01:59:08;;;;;;;;;;;4.20;99.90;;;;;;5056462;28;20287;-66
2022/10/09 02:01:35;;;;;;;;;;;4.20;99.90;;;;;;5056573;28;19908;-66
2022/10/09 02:04:02;;;;;;;;;;;4.20;99.90;;;;;;5056549;28;20291;-65
2022/10/09 02:06:28;;;;;;;;;;;4.20;99.90;;;;;;5056341;28;20342;-66
2022/10/09 02:08:55;;;;;;;;;;;4.20;99.90;;;;;;5056361;28;19944;-65
2022/10/09 02:11:20;;;;;;;;;;;4.10;99.90;;;;;;5054909;28;20033;-66
2022/10/09 02:13:47;;;;;;;;;;;4.10;99.90;;;;;;5056054;28;20467;-66
2022/10/09 02:16:32;;;;;;;;;;;4.10;99.90;;;;;;5055964;28;19932;-66
2022/10/09 02:18:59;;;;;;;;;;;4.10;99.90;;;;;;5056165;28;20275;-66
2022/10/09 02:21:28;;;;;;;;;;;4.00;99.90;;;;;;5055976;28;20409;-66
2022/10/09 02:23:55;;;;;;;;;;;4.10;99.90;;;;;;5088127;28;19909;-66
2022/10/09 02:26:20;;;;;;;;;;;4.00;99.90;;;;;;5055723;28;19919;-66
2022/10/09 02:28:46;;;;;;;;;;;4.00;99.90;;;;;;5054431;28;19952;-66
2022/10/09 02:31:28;;;;;;;;;;;3.90;99.90;;;;;;5056033;28;19913;-65
2022/10/09 02:33:54;;;;;;;;;;;3.90;99.90;;;;;;5056033;28;19931;-66
2022/10/09 02:36:19;;;;;;;;;;;3.90;99.90;;;;;;5055922;28;19909;-66
2022/10/09 02:38:45;;;;;;;;;;;3.90;99.90;;;;;;5055702;28;19912;-66
2022/10/09 02:41:10;;;;;;;;;;;3.80;99.90;;;;;;5087719;28;19908;-66
2022/10/09 02:43:36;;;;;;;;;;;3.80;99.90;;;;;;5055457;28;19909;-66
2022/10/09 02:46:01;;;;;;;;;;;3.80;99.90;;;;;;5055574;28;19913;-65
2022/10/09 02:48:27;;;;;;;;;;;3.80;99.90;;;;;;5088178;28;19958;-66
2022/10/09 02:50:52;;;;;;;;;;;3.90;99.90;;;;;;5054133;28;20291;-66
2022/10/09 02:53:18;;;;;;;;;;;3.80;99.90;;;;;;5070708;28;19909;-66
2022/10/09 02:55:43;;;;;;;;;;;3.80;99.90;;;;;;5087574;28;19916;-66
2022/10/09 02:58:09;;;;;;;;;;;3.80;99.90;;;;;;5088061;28;20405;-66
2022/10/09 03:00:36;;;;;;;;;;;3.80;99.90;;;;;;5055491;28;19908;-66
2022/10/09 03:03:02;;;;;;;;;;;3.80;99.90;;;;;;5055064;28;19915;-65
2022/10/09 03:05:27;;;;;;;;;;;3.70;99.90;;;;;;5053711;28;19913;-65
2022/10/09 03:07:53;;;;;;;;;;;3.70;99.90;;;;;;5055029;28;19909;-66
2022/10/09 03:10:18;;;;;;;;;;;3.70;99.90;;;;;;5054955;28;19909;-65
2022/10/09 03:12:44;;;;;;;;;;;3.60;99.90;;;;;;5055136;28;19909;-65
2022/10/09 03:15:10;;;;;;;;;;;3.60;99.90;;;;;;5054825;28;20287;-66
2022/10/09 03:17:35;;;;;;;;;;;3.60;99.90;;;;;;5054703;28;20003;-65
2022/10/09 03:20:01;;;;;;;;;;;3.50;99.90;;;;;;5054965;28;19908;-65
2022/10/09 03:22:26;;;;;;;;;;;3.60;99.90;;;;;;5054982;28;19909;-66
2022/10/09 03:24:52;;;;;;;;;;;3.50;99.90;;;;;;5054363;28;19920;-66
2022/10/09 03:27:17;;;;;;;;;;;3.40;99.90;;;;;;5054609;28;20055;-66
2022/10/09 03:29:42;;;;;;;;;;;3.40;99.90;;;;;;5054755;28;19909;-66
2022/10/09 03:32:08;;;;;;;;;;;3.50;99.90;;;;;;5054495;28;20011;-66
2022/10/09 03:34:33;;;;;;;;;;;3.50;99.90;;;;;;5054615;28;19916;-66
2022/10/09 03:36:59;;;;;;;;;;;3.60;99.90;;;;;;5054383;28;19913;-66
2022/10/09 03:39:25;;;;;;;;;;;3.60;99.90;;;;;;5053197;28;19913;-65
2022/10/09 03:41:50;;;;;;;;;;;3.60;99.90;;;;;;5053191;28;19932;-66
2022/10/09 03:44:15;;;;;;;;;;;3.50;99.90;;;;;;5053100;28;19992;-66
2022/10/09 03:46:41;;;;;;;;;;;3.60;99.90;;;;;;5054377;28;19920;-66
2022/10/09 03:49:07;;;;;;;;;;;3.60;99.90;;;;;;5054279;28;20003;-66
2022/10/09 03:51:32;;;;;;;;;;;3.60;99.90;;;;;;5054469;28;19909;-65
2022/10/09 03:53:58;;;;;;;;;;;3.50;99.90;;;;;;5054292;28;19996;-66
2022/10/09 03:56:23;;;;;;;;;;;3.60;99.90;;;;;;5053601;28;19908;-65
2022/10/09 03:58:48;;;;;;;;;;;3.60;99.90;;;;;;5053889;28;19996;-66
2022/10/09 04:01:14;;;;;;;;;;;3.60;99.90;;;;;;5052601;28;19916;-66
2022/10/09 04:03:39;;;;;;;;;;;3.60;99.90;;;;;;5052537;28;20367;-65
2022/10/09 04:06:05;;;;;;;;;;;3.60;99.90;;;;;;5053741;28;19924;-66
2022/10/09 04:08:30;;;;;;;;;;;3.60;99.90;;;;;;5053782;28;19913;-66
2022/10/09 04:10:57;;;;;;;;;;;3.60;99.90;;;;;;5053637;28;19908;-66
2022/10/09 04:13:22;;;;;;;;;;;3.50;99.90;;;;;;5053988;28;19916;-66
2022/10/09 04:15:48;;;;;;;;;;;3.50;99.90;;;;;;5053913;28;19909;-66
2022/10/09 04:18:14;;;;;;;;;;;3.50;99.90;;;;;;5086097;28;19912;-66
2022/10/09 04:20:43;;;;;;;;;;;3.40;99.90;;;;;;5053834;28;19908;-66
2022/10/09 04:23:08;;;;;;;;;;;3.40;99.90;;;;;;5085873;28;19915;-66
2022/10/09 04:25:34;;;;;;;;;;;3.40;99.90;;;;;;5053202;28;19921;-66
2022/10/09 04:27:59;;;;;;;;;;;3.40;99.90;;;;;;5052280;28;19958;-66
2022/10/09 04:30:25;;;;;;;;;;;3.30;99.90;;;;;;5053783;28;19921;-65
2022/10/09 04:32:50;;;;;;;;;;;3.30;99.90;;;;;;5053369;28;19916;-66
2022/10/09 04:35:16;;;;;;;;;;;3.30;99.90;;;;;;5053737;28;19908;-66
2022/10/09 04:37:41;;;;;;;;;;;3.20;99.90;;;;;;5053476;28;20275;-66
2022/10/09 04:40:07;;;;;;;;;;;3.20;99.90;;;;;;5052276;28;19909;-66
2022/10/09 04:42:33;;;;;;;;;;;3.20;99.90;;;;;;5053702;28;20328;-66
2022/10/09 04:44:58;;;;;;;;;;;3.20;99.90;;;;;;5086456;28;19912;-66
2022/10/09 04:47:23;;;;;;;;;;;3.20;99.90;;;;;;5053989;28;19916;-65
2022/10/09 04:49:49;;;;;;;;;;;3.20;99.90;;;;;;5053563;28;19908;-66
2022/10/09 04:52:14;;;;;;;;;;;3.20;99.90;;;;;;5053771;28;19961;-66
2022/10/09 04:54:40;;;;;;;;;;;3.20;99.90;;;;;;5085780;28;19952;-65
2022/10/09 04:57:05;;;;;;;;;;;3.10;99.90;;;;;;5053491;28;19909;-66
2022/10/09 04:59:31;;;;;;;;;;;3.10;99.90;;;;;;5053151;28;19908;-66
2022/10/09 05:01:56;;;;;;;;;;;3.10;99.90;;;;;;5085794;28;19916;-65
2022/10/09 05:04:22;;;;;;;;;;;3.10;99.90;;;;;;5053611;28;20280;-66
2022/10/09 05:06:47;;;;;;;;;;;3.10;99.90;;;;;;5053432;28;19912;-66
2022/10/09 05:09:13;;;;;;;;;;;3.10;99.90;;;;;;5057053;28;19909;-66
2022/10/09 05:11:38;;;;;;;;;;;3.10;99.90;;;;;;5057032;28;20007;-65
2022/10/09 05:14:04;;;;;;;;;;;3.10;99.90;;;;;;5055717;28;19913;-66
2022/10/09 05:16:30;;;;;;;;;;;3.00;99.90;;;;;;5057018;28;19999;-66
2022/10/09 05:18:57;;;;;;;;;;;3.10;99.90;;;;;;5057158;28;20341;-66
2022/10/09 05:21:23;;;;;;;;;;;3.00;99.90;;;;;;5056942;28;19919;-66
2022/10/09 05:23:49;;;;;;;;;;;3.00;99.90;;;;;;5055506;28;19909;-66
2022/10/09 05:26:17;;;;;;;;;;;3.00;99.90;;;;;;5056983;28;19913;-66
2022/10/09 05:28:42;;;;;;;;;;;2.90;99.90;;;;;;5057048;28;20363;-66
2022/10/09 05:31:08;;;;;;;;;;;2.90;99.90;;;;;;5056995;28;19916;-66
2022/10/09 05:33:34;;;;;;;;;;;3.00;99.90;;;;;;5056624;28;19916;-65
2022/10/09 05:36:01;;;;;;;;;;;3.00;99.90;;;;;;5055676;28;20303;-66
2022/10/09 05:38:27;;;;;;;;;;;3.00;99.90;;;;;;5089160;28;20005;-66
2022/10/09 05:40:54;;;;;;;;;;;3.00;99.90;;;;;;5055404;28;19916;-66
2022/10/09 05:43:21;;;;;;;;;;;3.00;99.90;;;;;;5056644;28;19916;-66
2022/10/09 05:45:46;;;;;;;;;;;3.10;99.90;;;;;;5056626;28;20367;-66
2022/10/09 05:48:12;;;;;;;;;;;3.00;99.90;;;;;;5056422;28;19915;-66
2022/10/09 05:50:37;;;;;;;;;;;3.00;99.90;;;;;;5056423;28;19913;-66
2022/10/09 05:53:03;;;;;;;;;;;3.10;99.90;;;;;;5056563;28;19909;-66
2022/10/09 05:55:28;;;;;;;;;;;3.10;99.90;;;;;;5054976;28;19909;-66
2022/10/09 05:57:54;;;;;;;;;;;3.20;99.90;;;;;;5055016;28;20436;-61
2022/10/09 06:00:19;;;;;;;;;;;3.30;99.90;;;;;;5056155;28;19948;-61
2022/10/09 06:02:45;;;;;;;;;;;3.40;99.90;;;;;;5056331;28;19919;-61
2022/10/09 06:05:10;;;;;;;;;;;3.50;99.90;;;;;;5054697;28;19913;-62
2022/10/09 06:07:36;;;;;;;;;;;3.60;99.90;;;;;;5056110;28;19959;-61
2022/10/09 06:10:02;;;;;;;;;;;3.80;99.90;;;;;;5055975;28;19909;-62
2022/10/09 06:12:28;;;;;;;;;;;4.00;99.90;;;;;;5055946;28;19916;-62
2022/10/09 06:14:53;;;;;;;;;;;4.20;99.90;;;;;;5055897;28;19909;-61
2022/10/09 06:17:18;;;;;;;;;;;4.20;99.90;;;;;;5055744;28;19909;-62
2022/10/09 06:19:44;;;;;;;;;;;4.30;99.90;;;;;;5087817;28;19915;-62
2022/10/09 06:22:09;;;;;;;;;;;4.40;99.90;;;;;;5055947;28;20359;-62
2022/10/09 06:24:35;;;;;;;;;;;4.90;99.90;;;;;;5054136;28;19931;-61
2022/10/09 06:27:01;;;;;;;;;;;6.10;99.90;;;;;;5055942;28;19909;-62
2022/10/09 06:29:26;;;;;;;;;;;6.90;99.90;;;;;;5055511;28;19909;-62
2022/10/09 06:31:52;;;;;;;;;;;7.30;99.90;;;;;;5054372;28;19963;-61
2022/10/09 06:34:17;;;;;;;;;;;7.60;99.90;;;;;;5055831;28;20287;-60
2022/10/09 06:36:43;;;;;;;;;;;8.40;99.90;;;;;;5055703;28;20436;-61
2022/10/09 06:39:09;;;;;;;;;;;8.40;99.90;;;;;;5055916;28;20344;-61
2022/10/09 06:41:35;;;;;;;;;;;8.80;99.90;;;;;;5055948;28;19913;-61
2022/10/09 06:44:05;;;;;;;;;;;9.20;99.90;;;;;;5055994;28;19992;-61
2022/10/09 06:46:32;;;;;;;;;;;9.80;99.90;;;;;;5087477;28;20287;-61
2022/10/09 06:48:58;;;;;;;;;;;10.60;99.90;;;;;;5056040;28;20271;-63
2022/10/09 06:51:23;;;;;;;;;;;11.30;99.90;;;;;;5054319;28;19955;-61
2022/10/09 06:53:50;;;;;;;;;;;11.90;99.90;;;;;;5055741;28;19908;-61
2022/10/09 06:56:17;;;;;;;;;;;12.50;99.90;;;;;;5088098;28;19912;-61
2022/10/09 06:58:43;;;;;;;;;;;13.00;99.90;;;;;;5053794;28;19913;-61
2022/10/09 07:03:51;;;;;;;;;;;13.40;99.90;;;;;;5071156;28;19927;-62
2022/10/09 07:06:18;;;;;;;;;;;13.40;99.90;;;;;;5071242;28;19912;-61
2022/10/09 07:08:46;;;;;;;;;;;13.90;99.90;;;;;;5071272;28;19959;-61
2022/10/09 07:11:14;;;;;;;;;;;14.70;99.90;;;;;;5086561;28;19908;-63
2022/10/09 07:13:40;;;;;;;;;;;15.10;99.90;;;;;;5069580;28;19955;-62
2022/10/09 07:16:07;;;;;;;;;;;16.10;99.90;;;;;;5069530;28;19908;-61
2022/10/09 07:18:33;;;;;;;;;;;15.80;99.90;;;;;;5069543;28;19916;-62
2022/10/09 07:21:02;;;;;;;;;;;15.70;99.90;;;;;;5070745;28;19909;-62
2022/10/09 07:23:29;;;;;;;;;;;15.60;99.90;;;;;;5070810;28;19912;-62
2022/10/09 07:25:55;;;;;;;;;;;15.20;99.90;;;;;;5070874;28;20279;-61
2022/10/09 07:28:21;;;;;;;;;;;15.30;99.90;;;;;;5086764;28;19908;-62
2022/10/09 07:30:46;;;;;;;;;;;15.30;99.90;;;;;;5070838;28;20050;-62
2022/10/09 07:33:12;;;;;;;;;;;15.30;99.90;;;;;;5070544;28;20378;-62
2022/10/09 07:35:37;;;;;;;;;;;16.70;99.90;;;;;;5070676;28;19909;-62
2022/10/09 07:38:03;;;;;;;;;;;16.30;99.90;;;;;;5070400;28;19908;-62
2022/10/09 07:40:32;;;;;;;;;;;17.70;99.90;;;;;;5070560;28;20290;-62
2022/10/09 07:42:57;;;;;;;;;;;17.10;99.90;;;;;;5070286;28;19939;-62
2022/10/09 07:45:23;;;;;;;;;;;16.00;99.90;;;;;;5070299;28;19908;-61
2022/10/09 07:47:48;;;;;;;;;;;16.30;99.90;;;;;;5070193;28;19917;-61
2022/10/09 07:50:14;;;;;;;;;;;16.90;99.90;;;;;;5070333;28;20063;-61
2022/10/09 07:52:39;;;;;;;;;;;16.10;99.90;;;;;;5085910;28;19908;-61
2022/10/09 07:55:05;;;;;;;;;;;16.70;99.90;;;;;;5070246;28;19909;-62
2022/10/09 07:57:30;;;;;;;;;;;16.90;99.90;;;;;;5068728;28;20287;-62
2022/10/09 07:59:56;;;;;;;;;;;17.30;99.90;;;;;;5070310;28;20366;-62
2022/10/09 08:02:21;;;;;;;;;;;17.00;99.90;;;;;;5078629;28;19921;-62
2022/10/09 08:04:47;;;;;;;;;;;16.40;99.90;;;;;;5090292;28;19916;-62
2022/10/09 08:07:12;;;;;;;;;;;17.20;99.90;;;;;;5089996;28;20378;-62
2022/10/09 08:09:38;;;;;;;;;;;17.20;99.90;;;;;;5071812;28;19915;-62
2022/10/09 08:12:04;;;;;;;;;;;16.90;99.90;;;;;;5090212;28;19915;-62
2022/10/09 08:14:29;;;;;;;;;;;16.70;99.90;;;;;;5080201;28;19913;-62
2022/10/09 08:16:55;;;;;;;;;;;17.20;99.90;;;;;;5058666;28;19908;-62
2022/10/09 08:19:20;;;;;;;;;;;17.40;99.90;;;;;;5076647;28;19909;-63
2022/10/09 08:21:46;;;;;;;;;;;17.50;99.90;;;;;;5076536;28;19920;-61
2022/10/09 08:24:11;;;;;;;;;;;18.20;99.90;;;;;;5076348;28;19909;-61
2022/10/09 08:26:37;;;;;;;;;;;18.40;99.90;;;;;;5076506;28;19958;-61
2022/10/09 08:29:03;;;;;;;;;;;19.00;99.90;;;;;;5076566;28;19915;-61
2022/10/09 08:31:30;;;;;;;;;;;18.80;99.90;;;;;;5058400;28;19913;-61
2022/10/09 08:33:57;;;;;;;;;;;17.70;99.90;;;;;;5076400;28;20374;-61
2022/10/09 08:36:23;;;;;;;;;;;18.90;99.90;;;;;;5076240;28;19908;-61
2022/10/09 08:38:49;;;;;;;;;;;18.00;99.90;;;;;;5076255;28;19913;-60
2022/10/09 08:41:34;;;;;;;;;;;18.00;99.90;;;;;;5076200;28;20039;-62
2022/10/09 08:44:02;;;;;;;;;;;18.10;99.90;;;;;;5075872;28;20333;-62
2022/10/09 08:46:30;;;;;;;;;;;17.40;99.90;;;;;;5076050;28;19908;-61
2022/10/09 08:48:57;;;;;;;;;;;18.80;99.90;;;;;;5057966;28;19908;-61
2022/10/09 08:51:24;;;;;;;;;;;19.70;99.90;;;;;;5075620;28;20000;-61
2022/10/09 08:53:52;;;;;;;;;;;18.80;99.90;;;;;;5057714;28;19939;-64
2022/10/09 08:56:17;;;;;;;;;;;19.00;99.90;;;;;;5075610;28;19908;-61
2022/10/09 08:58:43;;;;;;;;;;;19.10;99.90;;;;;;5075541;28;20309;-61
2022/10/09 09:01:16;;;;;;;;;;;19.60;99.90;;;;;;5075611;28;19912;-61
2022/10/09 09:04:02;;;;;;;;;;;18.80;99.90;;;;;;5075216;28;19920;-61
2022/10/09 09:06:33;;;;;;;;;;;19.60;99.90;;;;;;5075330;28;19908;-61
2022/10/09 09:09:03;;;;;;;;;;;19.10;99.90;;;;;;5075612;28;20003;-61
2022/10/09 09:11:49;;;;;;;;;;;19.40;99.90;;;;;;5075417;28;19951;-63
2022/10/09 09:14:29;;;;;;;;;;;19.50;99.90;;;;;;5057446;28;19908;-62
2022/10/09 09:17:00;;;;;;;;;;;20.10;99.90;;;;;;5075278;28;19909;-62
2022/10/09 09:19:45;;;;;;;;;;;19.70;99.90;;;;;;5075242;28;19995;-61
2022/10/09 09:22:12;;;;;;;;;;;19.20;99.90;;;;;;5074864;28;19928;-61
2022/10/09 09:24:41;;;;;;;;;;;18.80;99.90;;;;;;5075117;28;20014;-61
2022/10/09 09:27:12;;;;;;;;;;;19.50;99.90;;;;;;5074660;28;20354;-62
2022/10/09 09:29:39;;;;;;;;;;;19.50;99.90;;;;;;5075265;28;20251;-62
2022/10/09 09:32:27;;;;;;;;;;;19.90;99.90;;;;;;5074811;28;19908;-63
2022/10/09 09:34:58;;;;;;;;;;;19.90;99.90;;;;;;5057280;28;19908;-62
2022/10/09 09:37:23;;;;;;;;;;;20.70;99.90;;;;;;5056859;28;19915;-61
2022/10/09 09:39:49;;;;;;;;;;;20.90;99.90;;;;;;5074940;28;20278;-61
2022/10/09 09:42:16;;;;;;;;;;;20.90;99.90;;;;;;5074582;28;20381;-61
2022/10/09 09:44:45;;;;;;;;;;;20.40;99.90;;;;;;5074555;28;19952;-61
2022/10/09 09:47:14;;;;;;;;;;;20.40;99.90;;;;;;5074859;28;19909;-61
2022/10/09 09:49:51;;;;;;;;;;;20.80;99.90;;;;;;5056782;28;19916;-62
2022/10/09 09:52:17;;;;;;;;;;;20.50;99.90;;;;;;5056811;28;19915;-62
2022/10/09 09:54:46;;;;;;;;;;;20.90;99.90;;;;;;5074712;28;19909;-62
2022/10/09 09:57:11;;;;;;;;;;;21.30;97.70;;;;;;5074360;28;19908;-62
2022/10/09 09:59:38;;;;;;;;;;;21.10;98.40;;;;;;5074429;28;19912;-62
2022/10/09 10:02:07;;;;;;;;;;;21.10;98.20;;;;;;5074345;28;20306;-62
2022/10/09 10:04:33;;;;;;;;;;;20.80;99.80;;;;;;5056331;28;19913;-62
2022/10/09 10:06:58;;;;;;;;;;;20.40;99.80;;;;;;5074471;28;19912;-62
2022/10/09 10:09:24;;;;;;;;;;;20.40;99.90;;;;;;5074159;28;19938;-62
2022/10/09 10:11:56;;;;;;;;;;;20.70;99.90;;;;;;5074394;28;19909;-62
2022/10/09 10:14:22;;;;;;;;;;;21.00;99.90;;;;;;5056109;28;20363;-62
2022/10/09 10:16:48;;;;;;;;;;;21.10;98.80;;;;;;5056175;28;19909;-61
2022/10/09 10:19:22;;;;;;;;;;;21.80;98.40;;;;;;5074220;28;20394;-62
2022/10/09 10:21:54;;;;;;;;;;;21.70;96.70;;;;;;5074127;28;20512;-62
2022/10/09 10:24:23;;;;;;;;;;;21.40;97.20;;;;;;5074248;28;19930;-61
2022/10/09 10:26:50;;;;;;;;;;;21.60;96.30;;;;;;5073872;28;19915;-62
2022/10/09 10:29:19;;;;;;;;;;;21.60;96.50;;;;;;5073796;28;19913;-61
2022/10/09 10:31:49;;;;;;;;;;;21.20;96.70;;;;;;5074132;28;20272;-61
2022/10/09 10:34:18;;;;;;;;;;;21.40;97.30;;;;;;5073897;28;20370;-62
2022/10/09 10:36:44;;;;;;;;;;;21.80;96.10;;;;;;5055652;28;20282;-61
2022/10/09 10:39:13;;;;;;;;;;;21.60;96.40;;;;;;5073769;28;19962;-62
2022/10/09 10:41:44;;;;;;;;;;;22.00;96.20;;;;;;5055780;28;19912;-62
2022/10/09 10:44:16;;;;;;;;;;;22.50;95.00;;;;;;5073930;28;19915;-62
2022/10/09 10:46:48;;;;;;;;;;;22.30;93.70;;;;;;5073941;28;19909;-61
2022/10/09 10:49:18;;;;;;;;;;;22.00;93.70;;;;;;5073901;28;20366;-62
2022/10/09 10:51:49;;;;;;;;;;;22.20;94.40;;;;;;5039100;28;19909;-62
2022/10/09 10:54:34;;;;;;;;;;;22.30;93.70;;;;;;5073594;28;19909;-61
2022/10/09 10:57:19;;;;;;;;;;;21.20;94.30;;;;;;5055435;28;19920;-62
2022/10/09 10:59:55;;;;;;;;;;;21.60;93.60;;;;;;5055548;28;20367;-62
2022/10/09 11:02:41;;;;;;;;;;;21.20;94.40;;;;;;5035439;28;19921;-61
2022/10/09 11:05:14;;;;;;;;;;;20.40;93.80;;;;;;5053527;28;20485;-62
2022/10/09 11:07:59;;;;;;;;;;;20.70;95.10;;;;;;5053534;28;19909;-62
2022/10/09 11:10:33;;;;;;;;;;;20.60;94.40;;;;;;5053362;28;19913;-62
2022/10/09 11:13:05;;;;;;;;;;;20.30;95.30;;;;;;5053439;28;19913;-61
2022/10/09 11:15:51;;;;;;;;;;;20.00;96.30;;;;;;5053364;28;19909;-62
2022/10/09 11:18:27;;;;;;;;;;;19.60;95.80;;;;;;5053503;28;19958;-61
2022/10/09 11:21:07;;;;;;;;;;;19.70;96.00;;;;;;5053197;28;20363;-61
2022/10/09 11:23:52;;;;;;;;;;;19.40;96.00;;;;;;5053236;28;20009;-61
2022/10/09 11:26:23;;;;;;;;;;;19.20;97.20;;;;;;5051996;28;20411;-61
2022/10/09 11:28:52;;;;;;;;;;;19.00;95.50;;;;;;5069157;28;19909;-61
2022/10/09 11:31:18;;;;;;;;;;;18.60;96.20;;;;;;5053302;28;19998;-61
2022/10/09 11:33:45;;;;;;;;;;;18.70;97.90;;;;;;5053173;28;19909;-62
2022/10/09 11:36:14;;;;;;;;;;;18.80;98.00;;;;;;5053479;28;19949;-62
2022/10/09 11:38:45;;;;;;;;;;;18.60;97.40;;;;;;5068608;28;19962;-62
2022/10/09 11:41:10;;;;;;;;;;;18.50;98.10;;;;;;5053160;28;19912;-61
2022/10/09 11:46:22;;;;;;;;;;;18.80;98.10;;;;;;5071214;28;19987;-61
2022/10/09 11:48:57;;;;;;;;;;;19.00;97.60;;;;;;5086986;28;19913;-61
2022/10/09 11:51:28;;;;;;;;;;;18.90;98.20;;;;;;5086592;28;19954;-62
2022/10/09 11:53:54;;;;;;;;;;;18.90;97.80;;;;;;5071144;28;19974;-62
2022/10/09 11:56:21;;;;;;;;;;;18.60;97.60;;;;;;5071100;28;19913;-62
2022/10/09 11:59:05;;;;;;;;;;;18.20;97.30;;;;;;5086472;28;19919;-62
2022/10/09 12:01:33;;;;;;;;;;;17.80;98.30;;;;;;5070978;28;19916;-60
2022/10/09 12:06:46;;;;;;;;;;;17.80;98.70;;;;;;5070965;28;20413;-61
2022/10/09 12:09:19;;;;;;;;;;;17.80;98.80;;;;;;5069701;28;19999;-62
2022/10/09 12:11:54;;;;;;;;;;;18.00;97.80;;;;;;5071260;28;20355;-61
2022/10/09 12:14:23;;;;;;;;;;;18.00;98.80;;;;;;5069716;28;19908;-61
2022/10/09 12:16:49;;;;;;;;;;;17.90;97.90;;;;;;5086862;28;19908;-60
2022/10/09 12:19:17;;;;;;;;;;;18.20;99.90;;;;;;5070814;28;19915;-61
2022/10/09 12:21:46;;;;;;;;;;;18.60;99.10;;;;;;5070696;28;19916;-61
2022/10/09 12:24:14;;;;;;;;;;;18.50;97.50;;;;;;5070814;28;19909;-61
2022/10/09 12:26:40;;;;;;;;;;;18.50;98.80;;;;;;5070533;28;20001;-62
2022/10/09 12:29:13;;;;;;;;;;;18.40;97.80;;;;;;5070825;28;20312;-62
2022/10/09 12:31:40;;;;;;;;;;;18.40;96.50;;;;;;5069313;28;19947;-68
2022/10/09 12:34:16;;;;;;;;;;;18.00;97.20;;;;;;5070597;28;19908;-68
2022/10/09 12:36:41;;;;;;;;;;;18.00;99.40;;;;;;5070494;28;19909;-68
2022/10/09 12:39:11;;;;;;;;;;;18.00;97.60;;;;;;5070843;28;19909;-68
2022/10/09 12:41:36;;;;;;;;;;;18.20;97.60;;;;;;5086166;28;19909;-68
2022/10/09 12:44:02;;;;;;;;;;;18.30;97.50;;;;;;5070441;28;20007;-68
2022/10/09 12:46:30;;;;;;;;;;;18.30;96.70;;;;;;5070760;28;19913;-68
2022/10/09 12:48:59;;;;;;;;;;;18.30;96.80;;;;;;5070201;28;20003;-62
2022/10/09 12:51:27;;;;;;;;;;;18.40;97.70;;;;;;5070419;28;19908;-61
2022/10/09 12:53:53;;;;;;;;;;;18.40;97.20;;;;;;5070311;28;19979;-62
2022/10/09 12:56:23;;;;;;;;;;;18.40;97.60;;;;;;5070119;28;19955;-62
2022/10/09 12:58:55;;;;;;;;;;;18.50;97.10;;;;;;5070087;28;19935;-61
2022/10/09 13:01:21;;;;;;;;;;;18.50;97.20;;;;;;5085317;28;19932;-62
2022/10/09 13:03:55;;;;;;;;;;;18.40;97.60;;;;;;5070391;28;19951;-61
2022/10/09 13:06:22;;;;;;;;;;;18.50;97.70;;;;;;5087527;28;19920;-61
2022/10/09 13:08:51;;;;;;;;;;;18.50;97.90;;;;;;5090209;28;19987;-61
2022/10/09 13:11:18;;;;;;;;;;;18.40;98.00;;;;;;5090282;28;19908;-61
2022/10/09 13:13:47;;;;;;;;;;;18.30;98.30;;;;;;5090030;28;19908;-61
2022/10/09 13:16:13;;;;;;;;;;;18.40;98.70;;;;;;5086544;28;19908;-61
2022/10/09 13:18:39;;;;;;;;;;;18.50;98.50;;;;;;5076641;28;20038;-61
2022/10/09 13:21:23;;;;;;;;;;;18.40;97.60;;;;;;5076561;28;20381;-61
2022/10/09 13:23:49;;;;;;;;;;;18.30;98.20;;;;;;5076516;28;19909;-61
2022/10/09 13:26:19;;;;;;;;;;;18.40;99.10;;;;;;5076161;28;20011;-61
2022/10/09 13:28:44;;;;;;;;;;;18.40;98.60;;;;;;5076132;28;19909;-60
2022/10/09 13:31:10;;;;;;;;;;;18.50;98.80;;;;;;5076176;28;19915;-61
2022/10/09 13:33:36;;;;;;;;;;;18.30;99.30;;;;;;5076114;28;20321;-61
2022/10/09 13:36:01;;;;;;;;;;;18.30;99.60;;;;;;5076125;28;19915;-62
2022/10/09 13:38:27;;;;;;;;;;;18.40;98.40;;;;;;5076151;28;19934;-60
2022/10/09 13:40:53;;;;;;;;;;;18.40;97.80;;;;;;5058039;28;19926;-61
2022/10/09 13:43:21;;;;;;;;;;;18.20;99.20;;;;;;5076226;28;19991;-61
2022/10/09 13:45:46;;;;;;;;;;;18.10;97.90;;;;;;5076109;28;20374;-60
2022/10/09 13:48:12;;;;;;;;;;;18.10;98.60;;;;;;5057966;28;19913;-61
2022/10/09 13:50:37;;;;;;;;;;;17.90;99.70;;;;;;5076090;28;19908;-61
2022/10/09 13:53:03;;;;;;;;;;;18.00;99.40;;;;;;5075714;28;19915;-61
2022/10/09 13:55:40;;;;;;;;;;;17.90;98.40;;;;;;5075938;28;19908;-60
2022/10/09 13:58:06;;;;;;;;;;;17.80;99.90;;;;;;5057575;28;19909;-61
2022/10/09 14:00:31;;;;;;;;;;;18.00;99.00;;;;;;5075827;28;19920;-63
2022/10/09 14:02:57;;;;;;;;;;;18.10;98.30;;;;;;5075852;28;19939;-62
2022/10/09 14:05:22;;;;;;;;;;;18.00;98.30;;;;;;5075226;28;19924;-61
2022/10/09 14:07:48;;;;;;;;;;;17.90;99.40;;;;;;5075416;28;19978;-61
2022/10/09 14:10:13;;;;;;;;;;;18.00;98.10;;;;;;5075631;28;19909;-62
2022/10/09 14:12:39;;;;;;;;;;;18.00;98.00;;;;;;5075596;28;19999;-62
2022/10/09 14:15:05;;;;;;;;;;;18.00;98.60;;;;;;5075315;28;19909;-62
2022/10/09 14:17:30;;;;;;;;;;;18.10;98.50;;;;;;5075424;28;19909;-62
2022/10/09 14:19:56;;;;;;;;;;;18.10;98.90;;;;;;5075396;28;19958;-62
2022/10/09 14:22:21;;;;;;;;;;;18.20;99.00;;;;;;5075210;28;19955;-64
2022/10/09 14:24:47;;;;;;;;;;;18.10;98.20;;;;;;5075247;28;19912;-62
2022/10/09 14:27:12;;;;;;;;;;;17.90;98.90;;;;;;5075307;28;19958;-62
2022/10/09 14:29:38;;;;;;;;;;;17.80;98.60;;;;;;5055963;28;19908;-62
2022/10/09 14:32:04;;;;;;;;;;;17.70;99.20;;;;;;5074979;28;19935;-62
2022/10/09 14:34:30;;;;;;;;;;;17.90;98.90;;;;;;5057042;28;19912;-62